Kimberly Turecamo — WDC6838 — position and weather

sailwx.info

Track history (hours):
 
Tides and Currents Weather Stations Pressure Air Temp Water Temp Dewpoint Dewpoint Depression Visibility Wind Speed Wind Dir Waves Ship Positions

Kimberly Turecamo

Owner: Moran Towing Corporation, New Canaan, CT. More information available from US FCC via Universal Licensing System and Coast Guard Vessel Documentation Center.

Last reported at 2014-Dec-16 17:05 UTC. Time now 2014-Dec-21 11:21 UTC.
Position N 38°51' W 076°25'.

Length 33 m; draft 5 m.

Type: Tug. MMSI: 367061980.

Date/timePositionNaut miles runAvg speedWind from/ knotsBaromVisibWave heightAir tempDewpointWater temp
2014-Dec-16 17:05N 38°51' W 076°25'21 8.2
2014-Dec-16 14:34N 39°11' W 076°28'6 5.6
2014-Dec-16 13:33N 39°15' W 076°33'0 0.4
2014-Dec-16 12:34N 39°15' W 076°33'0 0.0
2014-Dec-16 11:33N 39°15' W 076°33'1 1.2
2014-Dec-16 10:33N 39°16' W 076°34'0 0.2
2014-Dec-16 09:34N 39°16' W 076°34'0 0.0
2014-Dec-16 08:33N 39°16' W 076°34'0 0.0
2014-Dec-16 07:33N 39°16' W 076°34'0 0.0
2014-Dec-16 06:33N 39°16' W 076°34'0 0.0
2014-Dec-16 05:33N 39°16' W 076°34'0 0.0
2014-Dec-16 04:32N 39°16' W 076°34'0 0.0
2014-Dec-16 03:32N 39°16' W 076°34'0 0.0
2014-Dec-16 02:33N 39°16' W 076°34'0 0.0
2014-Dec-16 01:32N 39°16' W 076°34'0 0.0
2014-Dec-16 00:32N 39°16' W 076°34'0 0.4
2014-Dec-15 23:34N 39°16' W 076°34'8 8.0
2014-Dec-15 22:34N 39°11' W 076°27'106 2.9
2014-Dec-14 09:32N 39°26' W 074°12'1010.0
2014-Dec-14 08:34N 39°35' W 074°06'1010.1
2014-Dec-14 07:33N 39°44' W 073°60'1110.0
2014-Dec-14 06:29N 39°54' W 073°58'1010.3
2014-Dec-14 05:33N 40°04' W 073°56'1210.1
2014-Dec-14 04:22N 40°16' W 073°55'910.8
2014-Dec-14 03:33N 40°24' W 073°54'9 9.1
2014-Dec-14 02:33N 40°32' W 074°01'7 7.4
2014-Dec-14 01:34N 40°39' W 074°02'4 2.9
2014-Dec-14 00:09N 40°38' W 074°08'0 0.0
2014-Dec-13 23:30N 40°38' W 074°08'0 0.0
2014-Dec-13 22:16N 40°38' W 074°08'2 2.7
2014-Dec-13 21:34N 40°39' W 074°05'2 2.3
2014-Dec-13 20:33N 40°39' W 074°02'0 0.0
2014-Dec-13 19:34N 40°39' W 074°02'3 3.3
2014-Dec-13 18:34N 40°43' W 074°02'6 5.3
2014-Dec-13 17:28N 40°47' W 073°56'15 7.4
2014-Dec-13 15:23N 40°55' W 073°39'11 9.6
2014-Dec-13 14:16N 40°60' W 073°26'16 9.4
2014-Dec-13 12:32N 41°00' W 073°05'9 8.9
2014-Dec-13 11:34N 41°01' W 072°53'9 8.8
2014-Dec-13 10:34N 41°01' W 072°42'2 2.4
2014-Dec-13 09:34N 41°00' W 072°39'0 0.0
2014-Dec-13 08:34N 41°00' W 072°39'0 0.0
2014-Dec-13 07:34N 41°00' W 072°39'0 0.0
2014-Dec-13 06:34N 41°00' W 072°39'0 0.0
2014-Dec-13 05:34N 41°00' W 072°39'0 0.0
2014-Dec-13 04:34N 41°00' W 072°39'0 0.0
2014-Dec-13 03:34N 41°00' W 072°39'0 0.0
2014-Dec-13 02:34N 41°00' W 072°39'0 0.0
2014-Dec-13 01:34N 41°00' W 072°39'0 0.0
2014-Dec-13 00:34N 41°00' W 072°39'0 0.0
2014-Dec-12 23:34N 41°00' W 072°39'0 0.0
2014-Dec-12 22:34N 41°00' W 072°39'0 0.0
2014-Dec-12 21:34N 41°00' W 072°39'0 0.0
2014-Dec-12 20:34N 41°00' W 072°39'0 0.0
2014-Dec-12 19:34N 41°00' W 072°39'0 0.0
2014-Dec-12 18:34N 41°00' W 072°39'0 0.0
2014-Dec-12 17:33N 41°00' W 072°39'0 0.0
2014-Dec-12 16:34N 41°00' W 072°39'0 0.0
2014-Dec-12 15:33N 41°00' W 072°39'0 0.0
2014-Dec-12 14:34N 41°00' W 072°39'0 0.0
2014-Dec-12 13:34N 41°00' W 072°39'0 0.0
2014-Dec-12 12:34N 41°00' W 072°39'0 0.0
2014-Dec-12 11:34N 41°00' W 072°39'1 0.8
2014-Dec-12 10:34N 41°00' W 072°38'1 0.9
2014-Dec-12 09:34N 41°00' W 072°37'0 0.0
2014-Dec-12 08:33N 41°00' W 072°37'0 0.0
2014-Dec-12 07:33N 41°00' W 072°37'0 0.0
2014-Dec-12 06:34N 41°00' W 072°37'0 0.0
2014-Dec-12 05:34N 41°00' W 072°37'0 0.0
2014-Dec-12 04:34N 41°00' W 072°37'0 0.0
2014-Dec-12 03:34N 41°00' W 072°37'0 0.0
2014-Dec-12 02:33N 41°00' W 072°37'0 0.0
2014-Dec-12 01:33N 41°00' W 072°37'0 0.0
2014-Dec-12 00:34N 41°00' W 072°37'0 0.0
2014-Dec-11 23:34N 41°00' W 072°37'0 0.0
2014-Dec-11 22:34N 41°00' W 072°37'0 0.0
2014-Dec-11 21:34N 41°00' W 072°37'0 0.0
2014-Dec-11 20:34N 41°00' W 072°37'0 0.0
2014-Dec-11 19:33N 41°00' W 072°37'0 0.0
2014-Dec-11 18:34N 41°00' W 072°37'0 0.0
2014-Dec-11 17:34N 41°00' W 072°37'0 0.0
2014-Dec-11 16:34N 41°00' W 072°37'0 0.0
2014-Dec-11 15:34N 41°00' W 072°37'0 0.0
2014-Dec-11 14:33N 41°00' W 072°37'0 0.0
2014-Dec-11 13:34N 41°00' W 072°37'0 0.0
2014-Dec-11 12:34N 41°00' W 072°37'0 0.0
2014-Dec-11 11:33N 41°00' W 072°37'0 0.0
2014-Dec-11 10:33N 41°00' W 072°37'0 0.0
2014-Dec-11 09:33N 41°00' W 072°37'0 0.0
2014-Dec-11 08:33N 41°00' W 072°37'0 0.0
2014-Dec-11 07:34N 41°00' W 072°37'0 0.0
2014-Dec-11 06:34N 41°00' W 072°37'0 0.0
2014-Dec-11 05:34N 41°00' W 072°37'0 0.0
2014-Dec-11 04:34N 41°00' W 072°37'0 0.0
2014-Dec-11 03:34N 41°00' W 072°37'0 0.0
2014-Dec-11 02:33N 41°00' W 072°37'0 0.0
2014-Dec-11 01:33N 41°00' W 072°37'0 0.0
2014-Dec-11 00:34N 41°00' W 072°37'0 0.0
2014-Dec-10 23:34N 41°00' W 072°37'1 0.9
2014-Dec-10 22:34N 41°00' W 072°38'1 0.7
2014-Dec-10 21:34N 41°00' W 072°39'2 2.0
2014-Dec-10 20:34N 41°02' W 072°39'8 8.0
2014-Dec-10 19:34N 41°08' W 072°47'7 7.1
2014-Dec-10 18:34N 41°13' W 072°53'2 1.7
2014-Dec-10 17:14N 41°13' W 072°56'1 1.5
2014-Dec-10 16:33N 41°13' W 072°57'0 0.0
2014-Dec-10 15:31N 41°13' W 072°57'0 0.0
2014-Dec-10 14:34N 41°13' W 072°57'0 0.1
2014-Dec-10 12:30N 41°13' W 072°57'0 0.0
2014-Dec-10 11:32N 41°13' W 072°57'0 0.0
2014-Dec-10 10:32N 41°13' W 072°57'0 0.0
2014-Dec-10 09:34N 41°13' W 072°57'0 0.0
2014-Dec-10 08:30N 41°13' W 072°57'0 0.0
2014-Dec-10 07:29N 41°13' W 072°57'0 0.0
2014-Dec-10 06:21N 41°13' W 072°57'0 0.1
2014-Dec-10 05:34N 41°13' W 072°57'0 0.0
2014-Dec-10 04:33N 41°13' W 072°57'0 0.0
2014-Dec-10 03:33N 41°13' W 072°57'0 0.0
2014-Dec-10 02:34N 41°13' W 072°57'0 0.0
2014-Dec-10 01:31N 41°13' W 072°57'0 0.0
2014-Dec-10 00:24N 41°13' W 072°57'0 0.0
2014-Dec-09 23:33N 41°13' W 072°57'0 0.0
2014-Dec-09 22:33N 41°13' W 072°57'0 0.0
2014-Dec-09 21:33N 41°13' W 072°57'0 0.0
2014-Dec-09 20:28N 41°13' W 072°57'0 0.0
2014-Dec-09 19:34N 41°13' W 072°57'0 0.0
2014-Dec-09 18:32N 41°13' W 072°57'0 0.0
2014-Dec-09 17:33N 41°13' W 072°57'0 0.1
2014-Dec-09 16:33N 41°13' W 072°57'0 0.0
2014-Dec-09 15:32N 41°13' W 072°57'0 0.0
2014-Dec-09 14:31N 41°13' W 072°57'0 0.0
2014-Dec-09 13:33N 41°13' W 072°57'0 0.0
2014-Dec-09 12:31N 41°13' W 072°57'0 0.0
2014-Dec-09 11:33N 41°13' W 072°57'0 0.0
2014-Dec-09 10:33N 41°13' W 072°57'0 0.0
2014-Dec-09 09:30N 41°13' W 072°57'0 0.0
2014-Dec-09 08:32N 41°13' W 072°57'0 0.0
2014-Dec-09 07:33N 41°13' W 072°57'0 0.0
2014-Dec-09 06:34N 41°13' W 072°57'0 0.0
2014-Dec-09 05:33N 41°13' W 072°57'0 0.0
2014-Dec-09 04:33N 41°13' W 072°57'0 0.0
2014-Dec-09 03:33N 41°13' W 072°57'0 0.0
2014-Dec-09 02:34N 41°13' W 072°57'0 0.0
2014-Dec-09 01:34N 41°13' W 072°57'0 0.0
2014-Dec-09 00:33N 41°13' W 072°57'0 0.0
2014-Dec-08 23:33N 41°13' W 072°57'0 0.0
2014-Dec-08 22:33N 41°13' W 072°57'0 0.0
2014-Dec-08 21:33N 41°13' W 072°57'0 0.0
2014-Dec-08 20:32N 41°13' W 072°57'0 0.0
2014-Dec-08 19:33N 41°13' W 072°57'0 0.0
2014-Dec-08 18:34N 41°13' W 072°57'0 0.0
2014-Dec-08 17:33N 41°13' W 072°57'0 0.0
2014-Dec-08 16:32N 41°13' W 072°57'1 1.5
2014-Dec-08 15:33N 41°13' W 072°55'3 3.0
2014-Dec-08 14:34N 41°13' W 072°51'5 4.6
2014-Dec-08 13:33N 41°13' W 072°58'0 0.0
2014-Dec-08 12:34N 41°13' W 072°58'0 0.0
2014-Dec-08 11:33N 41°13' W 072°58'0 0.0
2014-Dec-08 10:33N 41°13' W 072°58'0 0.0
2014-Dec-08 09:34N 41°13' W 072°58'0 0.0
2014-Dec-08 08:34N 41°13' W 072°58'0 0.0
2014-Dec-08 07:34N 41°13' W 072°58'0 0.0
2014-Dec-08 06:33N 41°13' W 072°58'0 0.0
2014-Dec-08 05:33N 41°13' W 072°58'0 0.0
2014-Dec-08 04:34N 41°13' W 072°58'0 0.0
2014-Dec-08 03:33N 41°13' W 072°58'0 0.0
2014-Dec-08 02:34N 41°13' W 072°58'0 0.0
2014-Dec-08 01:33N 41°13' W 072°58'0 0.0
2014-Dec-08 00:30N 41°13' W 072°58'0 0.0
2014-Dec-07 23:33N 41°13' W 072°58'0 0.0
2014-Dec-07 22:34N 41°13' W 072°58'0 0.0
2014-Dec-07 20:30N 41°13' W 072°58'0 0.0
2014-Dec-07 19:15N 41°13' W 072°58'0 0.0
2014-Dec-07 18:29N 41°13' W 072°58'0 0.0
2014-Dec-07 17:33N 41°13' W 072°58'0 0.0
2014-Dec-07 16:34N 41°13' W 072°58'0 0.0
2014-Dec-07 15:33N 41°13' W 072°58'0 0.0
2014-Dec-07 14:34N 41°13' W 072°58'0 0.0
2014-Dec-07 13:31N 41°13' W 072°58'0 0.0
2014-Dec-07 12:34N 41°13' W 072°58'0 0.0
2014-Dec-07 11:33N 41°13' W 072°58'0 0.0
2014-Dec-07 10:33N 41°13' W 072°58'0 0.0
2014-Dec-07 09:34N 41°13' W 072°58'0 0.0
2014-Dec-07 05:06N 41°13' W 072°58'0 0.0
2014-Dec-07 04:34N 41°13' W 072°58'0 0.0
2014-Dec-07 03:34N 41°13' W 072°58'0 0.0
2014-Dec-07 01:23N 41°13' W 072°58'0 0.0
2014-Dec-07 00:18N 41°13' W 072°58'0 0.0
2014-Dec-06 23:30N 41°13' W 072°58'0 0.0
2014-Dec-06 22:33N 41°13' W 072°58'7 3.1
2014-Dec-06 20:27N 41°08' W 073°04'7 8.1
2014-Dec-06 19:34N 41°04' W 073°12'9 8.5
2014-Dec-06 18:33N 41°01' W 073°22'9 8.4
2014-Dec-06 17:31N 40°57' W 073°33'  
Track history (hours):
 
Tides and Currents Weather Stations Pressure Air Temp Water Temp Dewpoint Dewpoint Depression Visibility Wind Speed Wind Dir Waves Ship Positions

Kimberly Turecamo

Owner: Moran Towing Corporation, New Canaan, CT. More information available from US FCC via Universal Licensing System and Coast Guard Vessel Documentation Center.

Last reported at 2014-Dec-16 17:05 UTC. Time now 2014-Dec-21 11:21 UTC.
Position N 38°51' W 076°25'.

Length 33 m; draft 5 m.

Type: Tug. MMSI: 367061980.

Date/timePositionNaut miles runAvg speedWind from/ knotsBaromVisibWave heightAir tempDewpointWater temp
2014-Dec-16 17:05N 38°51' W 076°25'21 8.2
2014-Dec-16 14:34N 39°11' W 076°28'6 5.6
2014-Dec-16 13:33N 39°15' W 076°33'0 0.4
2014-Dec-16 12:34N 39°15' W 076°33'0 0.0
2014-Dec-16 11:33N 39°15' W 076°33'1 1.2
2014-Dec-16 10:33N 39°16' W 076°34'0 0.2
2014-Dec-16 09:34N 39°16' W 076°34'0 0.0
2014-Dec-16 08:33N 39°16' W 076°34'0 0.0
2014-Dec-16 07:33N 39°16' W 076°34'0 0.0
2014-Dec-16 06:33N 39°16' W 076°34'0 0.0
2014-Dec-16 05:33N 39°16' W 076°34'0 0.0
2014-Dec-16 04:32N 39°16' W 076°34'0 0.0
2014-Dec-16 03:32N 39°16' W 076°34'0 0.0
2014-Dec-16 02:33N 39°16' W 076°34'0 0.0
2014-Dec-16 01:32N 39°16' W 076°34'0 0.0
2014-Dec-16 00:32N 39°16' W 076°34'0 0.4
2014-Dec-15 23:34N 39°16' W 076°34'8 8.0
2014-Dec-15 22:34N 39°11' W 076°27'106 2.9
2014-Dec-14 09:32N 39°26' W 074°12'1010.0
2014-Dec-14 08:34N 39°35' W 074°06'1010.1
2014-Dec-14 07:33N 39°44' W 073°60'1110.0
2014-Dec-14 06:29N 39°54' W 073°58'1010.3
2014-Dec-14 05:33N 40°04' W 073°56'1210.1
2014-Dec-14 04:22N 40°16' W 073°55'910.8
2014-Dec-14 03:33N 40°24' W 073°54'9 9.1
2014-Dec-14 02:33N 40°32' W 074°01'7 7.4
2014-Dec-14 01:34N 40°39' W 074°02'4 2.9
2014-Dec-14 00:09N 40°38' W 074°08'0 0.0
2014-Dec-13 23:30N 40°38' W 074°08'0 0.0
2014-Dec-13 22:16N 40°38' W 074°08'2 2.7
2014-Dec-13 21:34N 40°39' W 074°05'2 2.3
2014-Dec-13 20:33N 40°39' W 074°02'0 0.0
2014-Dec-13 19:34N 40°39' W 074°02'3 3.3
2014-Dec-13 18:34N 40°43' W 074°02'6 5.3
2014-Dec-13 17:28N 40°47' W 073°56'15 7.4
2014-Dec-13 15:23N 40°55' W 073°39'11 9.6
2014-Dec-13 14:16N 40°60' W 073°26'16 9.4
2014-Dec-13 12:32N 41°00' W 073°05'9 8.9
2014-Dec-13 11:34N 41°01' W 072°53'9 8.8
2014-Dec-13 10:34N 41°01' W 072°42'2 2.4
2014-Dec-13 09:34N 41°00' W 072°39'0 0.0
2014-Dec-13 08:34N 41°00' W 072°39'0 0.0
2014-Dec-13 07:34N 41°00' W 072°39'0 0.0
2014-Dec-13 06:34N 41°00' W 072°39'0 0.0
2014-Dec-13 05:34N 41°00' W 072°39'0 0.0
2014-Dec-13 04:34N 41°00' W 072°39'0 0.0
2014-Dec-13 03:34N 41°00' W 072°39'0 0.0
2014-Dec-13 02:34N 41°00' W 072°39'0 0.0
2014-Dec-13 01:34N 41°00' W 072°39'0 0.0
2014-Dec-13 00:34N 41°00' W 072°39'0 0.0
2014-Dec-12 23:34N 41°00' W 072°39'0 0.0
2014-Dec-12 22:34N 41°00' W 072°39'0 0.0
2014-Dec-12 21:34N 41°00' W 072°39'0 0.0
2014-Dec-12 20:34N 41°00' W 072°39'0 0.0
2014-Dec-12 19:34N 41°00' W 072°39'0 0.0
2014-Dec-12 18:34N 41°00' W 072°39'0 0.0
2014-Dec-12 17:33N 41°00' W 072°39'0 0.0
2014-Dec-12 16:34N 41°00' W 072°39'0 0.0
2014-Dec-12 15:33N 41°00' W 072°39'0 0.0
2014-Dec-12 14:34N 41°00' W 072°39'0 0.0
2014-Dec-12 13:34N 41°00' W 072°39'0 0.0
2014-Dec-12 12:34N 41°00' W 072°39'0 0.0
2014-Dec-12 11:34N 41°00' W 072°39'1 0.8
2014-Dec-12 10:34N 41°00' W 072°38'1 0.9
2014-Dec-12 09:34N 41°00' W 072°37'0 0.0
2014-Dec-12 08:33N 41°00' W 072°37'0 0.0
2014-Dec-12 07:33N 41°00' W 072°37'0 0.0
2014-Dec-12 06:34N 41°00' W 072°37'0 0.0
2014-Dec-12 05:34N 41°00' W 072°37'0 0.0
2014-Dec-12 04:34N 41°00' W 072°37'0 0.0
2014-Dec-12 03:34N 41°00' W 072°37'0 0.0
2014-Dec-12 02:33N 41°00' W 072°37'0 0.0
2014-Dec-12 01:33N 41°00' W 072°37'0 0.0
2014-Dec-12 00:34N 41°00' W 072°37'0 0.0
2014-Dec-11 23:34N 41°00' W 072°37'0 0.0
2014-Dec-11 22:34N 41°00' W 072°37'0 0.0
2014-Dec-11 21:34N 41°00' W 072°37'0 0.0
2014-Dec-11 20:34N 41°00' W 072°37'0 0.0
2014-Dec-11 19:33N 41°00' W 072°37'0 0.0
2014-Dec-11 18:34N 41°00' W 072°37'0 0.0
2014-Dec-11 17:34N 41°00' W 072°37'0 0.0
2014-Dec-11 16:34N 41°00' W 072°37'0 0.0
2014-Dec-11 15:34N 41°00' W 072°37'0 0.0
2014-Dec-11 14:33N 41°00' W 072°37'0 0.0
2014-Dec-11 13:34N 41°00' W 072°37'0 0.0
2014-Dec-11 12:34N 41°00' W 072°37'0 0.0
2014-Dec-11 11:33N 41°00' W 072°37'0 0.0
2014-Dec-11 10:33N 41°00' W 072°37'0 0.0
2014-Dec-11 09:33N 41°00' W 072°37'0 0.0
2014-Dec-11 08:33N 41°00' W 072°37'0 0.0
2014-Dec-11 07:34N 41°00' W 072°37'0 0.0
2014-Dec-11 06:34N 41°00' W 072°37'0 0.0
2014-Dec-11 05:34N 41°00' W 072°37'0 0.0
2014-Dec-11 04:34N 41°00' W 072°37'0 0.0
2014-Dec-11 03:34N 41°00' W 072°37'0 0.0
2014-Dec-11 02:33N 41°00' W 072°37'0 0.0
2014-Dec-11 01:33N 41°00' W 072°37'0 0.0
2014-Dec-11 00:34N 41°00' W 072°37'0 0.0
2014-Dec-10 23:34N 41°00' W 072°37'1 0.9
2014-Dec-10 22:34N 41°00' W 072°38'1 0.7
2014-Dec-10 21:34N 41°00' W 072°39'2 2.0
2014-Dec-10 20:34N 41°02' W 072°39'8 8.0
2014-Dec-10 19:34N 41°08' W 072°47'7 7.1
2014-Dec-10 18:34N 41°13' W 072°53'2 1.7
2014-Dec-10 17:14N 41°13' W 072°56'1 1.5
2014-Dec-10 16:33N 41°13' W 072°57'0 0.0
2014-Dec-10 15:31N 41°13' W 072°57'0 0.0
2014-Dec-10 14:34N 41°13' W 072°57'0 0.1
2014-Dec-10 12:30N 41°13' W 072°57'0 0.0
2014-Dec-10 11:32N 41°13' W 072°57'0 0.0
2014-Dec-10 10:32N 41°13' W 072°57'0 0.0
2014-Dec-10 09:34N 41°13' W 072°57'0 0.0
2014-Dec-10 08:30N 41°13' W 072°57'0 0.0
2014-Dec-10 07:29N 41°13' W 072°57'0 0.0
2014-Dec-10 06:21N 41°13' W 072°57'0 0.1
2014-Dec-10 05:34N 41°13' W 072°57'0 0.0
2014-Dec-10 04:33N 41°13' W 072°57'0 0.0
2014-Dec-10 03:33N 41°13' W 072°57'0 0.0
2014-Dec-10 02:34N 41°13' W 072°57'0 0.0
2014-Dec-10 01:31N 41°13' W 072°57'0 0.0
2014-Dec-10 00:24N 41°13' W 072°57'0 0.0
2014-Dec-09 23:33N 41°13' W 072°57'0 0.0
2014-Dec-09 22:33N 41°13' W 072°57'0 0.0
2014-Dec-09 21:33N 41°13' W 072°57'0 0.0
2014-Dec-09 20:28N 41°13' W 072°57'0 0.0
2014-Dec-09 19:34N 41°13' W 072°57'0 0.0
2014-Dec-09 18:32N 41°13' W 072°57'0 0.0
2014-Dec-09 17:33N 41°13' W 072°57'0 0.1
2014-Dec-09 16:33N 41°13' W 072°57'0 0.0
2014-Dec-09 15:32N 41°13' W 072°57'0 0.0
2014-Dec-09 14:31N 41°13' W 072°57'0 0.0
2014-Dec-09 13:33N 41°13' W 072°57'0 0.0
2014-Dec-09 12:31N 41°13' W 072°57'0 0.0
2014-Dec-09 11:33N 41°13' W 072°57'0 0.0
2014-Dec-09 10:33N 41°13' W 072°57'0 0.0
2014-Dec-09 09:30N 41°13' W 072°57'0 0.0
2014-Dec-09 08:32N 41°13' W 072°57'0 0.0
2014-Dec-09 07:33N 41°13' W 072°57'0 0.0
2014-Dec-09 06:34N 41°13' W 072°57'0 0.0
2014-Dec-09 05:33N 41°13' W 072°57'0 0.0
2014-Dec-09 04:33N 41°13' W 072°57'0 0.0
2014-Dec-09 03:33N 41°13' W 072°57'0 0.0
2014-Dec-09 02:34N 41°13' W 072°57'0 0.0
2014-Dec-09 01:34N 41°13' W 072°57'0 0.0
2014-Dec-09 00:33N 41°13' W 072°57'0 0.0
2014-Dec-08 23:33N 41°13' W 072°57'0 0.0
2014-Dec-08 22:33N 41°13' W 072°57'0 0.0
2014-Dec-08 21:33N 41°13' W 072°57'0 0.0
2014-Dec-08 20:32N 41°13' W 072°57'0 0.0
2014-Dec-08 19:33N 41°13' W 072°57'0 0.0
2014-Dec-08 18:34N 41°13' W 072°57'0 0.0
2014-Dec-08 17:33N 41°13' W 072°57'0 0.0
2014-Dec-08 16:32N 41°13' W 072°57'1 1.5
2014-Dec-08 15:33N 41°13' W 072°55'3 3.0
2014-Dec-08 14:34N 41°13' W 072°51'5 4.6
2014-Dec-08 13:33N 41°13' W 072°58'0 0.0
2014-Dec-08 12:34N 41°13' W 072°58'0 0.0
2014-Dec-08 11:33N 41°13' W 072°58'0 0.0
2014-Dec-08 10:33N 41°13' W 072°58'0 0.0
2014-Dec-08 09:34N 41°13' W 072°58'0 0.0
2014-Dec-08 08:34N 41°13' W 072°58'0 0.0
2014-Dec-08 07:34N 41°13' W 072°58'0 0.0
2014-Dec-08 06:33N 41°13' W 072°58'0 0.0
2014-Dec-08 05:33N 41°13' W 072°58'0 0.0
2014-Dec-08 04:34N 41°13' W 072°58'0 0.0
2014-Dec-08 03:33N 41°13' W 072°58'0 0.0
2014-Dec-08 02:34N 41°13' W 072°58'0 0.0
2014-Dec-08 01:33N 41°13' W 072°58'0 0.0
2014-Dec-08 00:30N 41°13' W 072°58'0 0.0
2014-Dec-07 23:33N 41°13' W 072°58'0 0.0
2014-Dec-07 22:34N 41°13' W 072°58'0 0.0
2014-Dec-07 20:30N 41°13' W 072°58'0 0.0
2014-Dec-07 19:15N 41°13' W 072°58'0 0.0
2014-Dec-07 18:29N 41°13' W 072°58'0 0.0
2014-Dec-07 17:33N 41°13' W 072°58'0 0.0
2014-Dec-07 16:34N 41°13' W 072°58'0 0.0
2014-Dec-07 15:33N 41°13' W 072°58'0 0.0
2014-Dec-07 14:34N 41°13' W 072°58'0 0.0
2014-Dec-07 13:31N 41°13' W 072°58'0 0.0
2014-Dec-07 12:34N 41°13' W 072°58'0 0.0
2014-Dec-07 11:33N 41°13' W 072°58'0 0.0
2014-Dec-07 10:33N 41°13' W 072°58'0 0.0
2014-Dec-07 09:34N 41°13' W 072°58'0 0.0
2014-Dec-07 05:06N 41°13' W 072°58'0 0.0
2014-Dec-07 04:34N 41°13' W 072°58'0 0.0
2014-Dec-07 03:34N 41°13' W 072°58'0 0.0
2014-Dec-07 01:23N 41°13' W 072°58'0 0.0
2014-Dec-07 00:18N 41°13' W 072°58'0 0.0
2014-Dec-06 23:30N 41°13' W 072°58'0 0.0
2014-Dec-06 22:33N 41°13' W 072°58'7 3.1
2014-Dec-06 20:27N 41°08' W 073°04'7 8.1
2014-Dec-06 19:34N 41°04' W 073°12'9 8.5
2014-Dec-06 18:33N 41°01' W 073°22'9 8.4
2014-Dec-06 17:31N 40°57' W 073°33'  

Dump ship's entire track history